sensor_id;sensor_type;location;lat;lon;timestamp;P1;durP1;ratioP1;P2;durP2;ratioP2
75550;SDS011;65071;53.082;18.218;2023-06-19T00:02:25;15.20;;;10.20;;
75550;SDS011;65071;53.082;18.218;2023-06-19T00:04:51;12.70;;;10.00;;
75550;SDS011;65071;53.082;18.218;2023-06-19T00:07:18;12.70;;;9.40;;
75550;SDS011;65071;53.082;18.218;2023-06-19T00:09:45;12.40;;;9.70;;
75550;SDS011;65071;53.082;18.218;2023-06-19T00:12:12;11.80;;;9.80;;
75550;SDS011;65071;53.082;18.218;2023-06-19T00:14:38;11.90;;;9.40;;
75550;SDS011;65071;53.082;18.218;2023-06-19T00:17:05;12.40;;;9.10;;
75550;SDS011;65071;53.082;18.218;2023-06-19T00:19:32;12.80;;;8.80;;
75550;SDS011;65071;53.082;18.218;2023-06-19T00:22:03;11.70;;;9.40;;
75550;SDS011;65071;53.082;18.218;2023-06-19T00:24:30;11.00;;;9.30;;
75550;SDS011;65071;53.082;18.218;2023-06-19T00:26:56;12.50;;;9.70;;
75550;SDS011;65071;53.082;18.218;2023-06-19T00:29:29;10.60;;;9.10;;
75550;SDS011;65071;53.082;18.218;2023-06-19T00:31:57;11.80;;;9.70;;
75550;SDS011;65071;53.082;18.218;2023-06-19T00:34:24;12.90;;;9.60;;
75550;SDS011;65071;53.082;18.218;2023-06-19T00:36:51;11.00;;;9.10;;
75550;SDS011;65071;53.082;18.218;2023-06-19T00:39:25;10.80;;;8.90;;
75550;SDS011;65071;53.082;18.218;2023-06-19T00:41:52;13.30;;;10.30;;
75550;SDS011;65071;53.082;18.218;2023-06-19T00:44:19;13.50;;;9.90;;
75550;SDS011;65071;53.082;18.218;2023-06-19T00:46:46;12.90;;;9.90;;
75550;SDS011;65071;53.082;18.218;2023-06-19T00:49:13;11.10;;;8.80;;
75550;SDS011;65071;53.082;18.218;2023-06-19T00:51:41;13.20;;;9.90;;
75550;SDS011;65071;53.082;18.218;2023-06-19T00:54:08;13.10;;;9.90;;
75550;SDS011;65071;53.082;18.218;2023-06-19T00:56:36;12.70;;;9.80;;
75550;SDS011;65071;53.082;18.218;2023-06-19T00:59:05;12.50;;;9.50;;
75550;SDS011;65071;53.082;18.218;2023-06-19T01:01:33;13.00;;;10.10;;
75550;SDS011;65071;53.082;18.218;2023-06-19T01:04:00;12.80;;;9.80;;
75550;SDS011;65071;53.082;18.218;2023-06-19T01:06:27;9.60;;;8.30;;
75550;SDS011;65071;53.082;18.218;2023-06-19T01:09:05;14.40;;;9.80;;
75550;SDS011;65071;53.082;18.218;2023-06-19T01:11:39;12.80;;;10.20;;
75550;SDS011;65071;53.082;18.218;2023-06-19T01:14:19;14.30;;;10.80;;
75550;SDS011;65071;53.082;18.218;2023-06-19T01:16:51;11.50;;;9.60;;
75550;SDS011;65071;53.082;18.218;2023-06-19T01:19:19;11.80;;;10.10;;
75550;SDS011;65071;53.082;18.218;2023-06-19T01:21:47;12.20;;;9.80;;
75550;SDS011;65071;53.082;18.218;2023-06-19T01:24:14;12.50;;;9.80;;
75550;SDS011;65071;53.082;18.218;2023-06-19T01:26:41;12.10;;;10.10;;
75550;SDS011;65071;53.082;18.218;2023-06-19T01:29:08;11.30;;;9.90;;
75550;SDS011;65071;53.082;18.218;2023-06-19T01:31:38;12.80;;;9.60;;
75550;SDS011;65071;53.082;18.218;2023-06-19T01:34:14;16.00;;;10.30;;
75550;SDS011;65071;53.082;18.218;2023-06-19T01:36:44;14.20;;;10.10;;
75550;SDS011;65071;53.082;18.218;2023-06-19T01:39:14;13.80;;;10.30;;
75550;SDS011;65071;53.082;18.218;2023-06-19T01:41:44;18.60;;;11.90;;
75550;SDS011;65071;53.082;18.218;2023-06-19T01:44:12;14.50;;;9.40;;
75550;SDS011;65071;53.082;18.218;2023-06-19T01:46:39;15.10;;;10.50;;
75550;SDS011;65071;53.082;18.218;2023-06-19T01:49:07;13.30;;;9.90;;
75550;SDS011;65071;53.082;18.218;2023-06-19T01:56:29;14.90;;;9.80;;
75550;SDS011;65071;53.082;18.218;2023-06-19T01:58:56;11.70;;;9.40;;
75550;SDS011;65071;53.082;18.218;2023-06-19T02:01:23;13.80;;;9.90;;
75550;SDS011;65071;53.082;18.218;2023-06-19T02:03:49;13.20;;;9.80;;
75550;SDS011;65071;53.082;18.218;2023-06-19T02:06:16;11.70;;;9.40;;
75550;SDS011;65071;53.082;18.218;2023-06-19T02:08:43;12.40;;;9.20;;
75550;SDS011;65071;53.082;18.218;2023-06-19T02:11:11;11.00;;;8.80;;
75550;SDS011;65071;53.082;18.218;2023-06-19T02:13:38;12.40;;;9.10;;
75550;SDS011;65071;53.082;18.218;2023-06-19T02:16:04;13.10;;;10.50;;
75550;SDS011;65071;53.082;18.218;2023-06-19T02:18:31;19.80;;;13.80;;
75550;SDS011;65071;53.082;18.218;2023-06-19T02:20:57;37.60;;;23.50;;
75550;SDS011;65071;53.082;18.218;2023-06-19T02:23:24;28.30;;;20.80;;
75550;SDS011;65071;53.082;18.218;2023-06-19T02:25:50;29.20;;;21.10;;
75550;SDS011;65071;53.082;18.218;2023-06-19T02:28:17;31.60;;;18.50;;
75550;SDS011;65071;53.082;18.218;2023-06-19T02:30:44;22.30;;;15.40;;
75550;SDS011;65071;53.082;18.218;2023-06-19T02:33:10;24.70;;;14.60;;
75550;SDS011;65071;53.082;18.218;2023-06-19T02:35:36;21.60;;;14.70;;
75550;SDS011;65071;53.082;18.218;2023-06-19T02:38:03;16.80;;;11.30;;
75550;SDS011;65071;53.082;18.218;2023-06-19T02:40:30;18.00;;;12.20;;
75550;SDS011;65071;53.082;18.218;2023-06-19T02:42:57;18.00;;;12.20;;
75550;SDS011;65071;53.082;18.218;2023-06-19T02:45:23;16.90;;;11.70;;
75550;SDS011;65071;53.082;18.218;2023-06-19T02:47:50;18.00;;;11.20;;
75550;SDS011;65071;53.082;18.218;2023-06-19T02:50:18;15.10;;;11.00;;
75550;SDS011;65071;53.082;18.218;2023-06-19T02:52:44;14.10;;;11.60;;
75550;SDS011;65071;53.082;18.218;2023-06-19T02:55:11;16.40;;;11.70;;
75550;SDS011;65071;53.082;18.218;2023-06-19T02:57:37;16.90;;;11.30;;
75550;SDS011;65071;53.082;18.218;2023-06-19T03:00:04;16.40;;;11.50;;
75550;SDS011;65071;53.082;18.218;2023-06-19T03:02:36;17.10;;;11.10;;
75550;SDS011;65071;53.082;18.218;2023-06-19T03:05:03;17.40;;;11.80;;
75550;SDS011;65071;53.082;18.218;2023-06-19T03:07:29;16.90;;;10.20;;
75550;SDS011;65071;53.082;18.218;2023-06-19T03:09:56;14.00;;;9.70;;
75550;SDS011;65071;53.082;18.218;2023-06-19T03:12:23;14.10;;;10.10;;
75550;SDS011;65071;53.082;18.218;2023-06-19T03:14:49;11.40;;;9.70;;
75550;SDS011;65071;53.082;18.218;2023-06-19T03:17:16;9.90;;;8.60;;
75550;SDS011;65071;53.082;18.218;2023-06-19T03:19:42;14.30;;;9.50;;
75550;SDS011;65071;53.082;18.218;2023-06-19T03:22:09;14.10;;;9.60;;
75550;SDS011;65071;53.082;18.218;2023-06-19T03:24:35;11.40;;;9.10;;
75550;SDS011;65071;53.082;18.218;2023-06-19T03:27:13;11.80;;;9.90;;
75550;SDS011;65071;53.082;18.218;2023-06-19T03:29:40;13.00;;;9.90;;
75550;SDS011;65071;53.082;18.218;2023-06-19T03:32:07;14.60;;;10.30;;
75550;SDS011;65071;53.082;18.218;2023-06-19T03:34:34;14.90;;;10.90;;
75550;SDS011;65071;53.082;18.218;2023-06-19T03:37:04;12.90;;;10.20;;
75550;SDS011;65071;53.082;18.218;2023-06-19T03:39:31;10.60;;;8.30;;
75550;SDS011;65071;53.082;18.218;2023-06-19T03:42:03;17.00;;;9.90;;
75550;SDS011;65071;53.082;18.218;2023-06-19T03:44:30;14.80;;;9.90;;
75550;SDS011;65071;53.082;18.218;2023-06-19T03:46:56;12.20;;;10.00;;
75550;SDS011;65071;53.082;18.218;2023-06-19T03:49:23;12.20;;;8.60;;
75550;SDS011;65071;53.082;18.218;2023-06-19T03:51:51;10.40;;;8.80;;
75550;SDS011;65071;53.082;18.218;2023-06-19T03:54:20;10.70;;;9.20;;
75550;SDS011;65071;53.082;18.218;2023-06-19T03:56:47;10.50;;;9.20;;
75550;SDS011;65071;53.082;18.218;2023-06-19T03:59:13;11.20;;;9.60;;
75550;SDS011;65071;53.082;18.218;2023-06-19T04:01:40;13.30;;;10.20;;
75550;SDS011;65071;53.082;18.218;2023-06-19T04:04:07;9.70;;;8.70;;
75550;SDS011;65071;53.082;18.218;2023-06-19T04:06:34;11.20;;;9.40;;
75550;SDS011;65071;53.082;18.218;2023-06-19T04:09:00;11.60;;;10.00;;
75550;SDS011;65071;53.082;18.218;2023-06-19T04:11:27;17.10;;;11.70;;
75550;SDS011;65071;53.082;18.218;2023-06-19T04:13:54;12.50;;;10.50;;
75550;SDS011;65071;53.082;18.218;2023-06-19T04:16:20;15.30;;;12.30;;
75550;SDS011;65071;53.082;18.218;2023-06-19T04:18:48;13.60;;;11.60;;
75550;SDS011;65071;53.082;18.218;2023-06-19T04:21:14;12.50;;;11.00;;
75550;SDS011;65071;53.082;18.218;2023-06-19T04:23:41;13.60;;;10.60;;
75550;SDS011;65071;53.082;18.218;2023-06-19T04:26:08;12.50;;;11.20;;
75550;SDS011;65071;53.082;18.218;2023-06-19T04:28:34;12.30;;;11.00;;
75550;SDS011;65071;53.082;18.218;2023-06-19T04:31:01;13.00;;;11.70;;
75550;SDS011;65071;53.082;18.218;2023-06-19T04:33:28;13.00;;;11.70;;
75550;SDS011;65071;53.082;18.218;2023-06-19T04:35:55;13.10;;;11.40;;
75550;SDS011;65071;53.082;18.218;2023-06-19T04:38:22;13.60;;;12.00;;
75550;SDS011;65071;53.082;18.218;2023-06-19T04:40:53;14.30;;;12.80;;
75550;SDS011;65071;53.082;18.218;2023-06-19T04:43:19;13.80;;;11.50;;
75550;SDS011;65071;53.082;18.218;2023-06-19T04:45:46;12.80;;;11.60;;
75550;SDS011;65071;53.082;18.218;2023-06-19T04:48:13;13.90;;;11.90;;
75550;SDS011;65071;53.082;18.218;2023-06-19T04:50:39;11.00;;;9.80;;
75550;SDS011;65071;53.082;18.218;2023-06-19T04:53:05;13.00;;;10.70;;
75550;SDS011;65071;53.082;18.218;2023-06-19T04:55:32;14.60;;;12.30;;
75550;SDS011;65071;53.082;18.218;2023-06-19T04:57:59;12.70;;;11.40;;
75550;SDS011;65071;53.082;18.218;2023-06-19T05:00:25;13.10;;;11.70;;
75550;SDS011;65071;53.082;18.218;2023-06-19T05:02:52;13.90;;;12.50;;
75550;SDS011;65071;53.082;18.218;2023-06-19T05:05:19;12.80;;;10.40;;
75550;SDS011;65071;53.082;18.218;2023-06-19T05:07:46;12.40;;;11.20;;
75550;SDS011;65071;53.082;18.218;2023-06-19T05:10:13;13.40;;;11.60;;
75550;SDS011;65071;53.082;18.218;2023-06-19T05:12:39;13.90;;;12.40;;
75550;SDS011;65071;53.082;18.218;2023-06-19T05:15:10;13.20;;;11.60;;
75550;SDS011;65071;53.082;18.218;2023-06-19T05:17:40;14.20;;;12.80;;
75550;SDS011;65071;53.082;18.218;2023-06-19T05:20:11;12.90;;;11.50;;
75550;SDS011;65071;53.082;18.218;2023-06-19T05:22:38;13.40;;;12.10;;
75550;SDS011;65071;53.082;18.218;2023-06-19T05:25:05;13.50;;;12.10;;
75550;SDS011;65071;53.082;18.218;2023-06-19T05:27:32;13.00;;;11.60;;
75550;SDS011;65071;53.082;18.218;2023-06-19T05:29:59;13.20;;;11.60;;
75550;SDS011;65071;53.082;18.218;2023-06-19T05:32:30;12.20;;;11.00;;
75550;SDS011;65071;53.082;18.218;2023-06-19T05:34:58;12.40;;;11.10;;
75550;SDS011;65071;53.082;18.218;2023-06-19T05:37:28;13.50;;;12.10;;
75550;SDS011;65071;53.082;18.218;2023-06-19T05:39:55;13.30;;;12.00;;
75550;SDS011;65071;53.082;18.218;2023-06-19T05:42:21;14.80;;;12.90;;
75550;SDS011;65071;53.082;18.218;2023-06-19T05:44:48;13.70;;;12.40;;
75550;SDS011;65071;53.082;18.218;2023-06-19T05:47:14;12.80;;;11.50;;
75550;SDS011;65071;53.082;18.218;2023-06-19T05:49:43;13.40;;;12.00;;
75550;SDS011;65071;53.082;18.218;2023-06-19T05:52:10;13.60;;;12.20;;
75550;SDS011;65071;53.082;18.218;2023-06-19T05:54:36;14.10;;;12.60;;
75550;SDS011;65071;53.082;18.218;2023-06-19T05:57:03;13.20;;;11.70;;
75550;SDS011;65071;53.082;18.218;2023-06-19T05:59:30;13.90;;;12.60;;
75550;SDS011;65071;53.082;18.218;2023-06-19T06:01:56;15.70;;;13.50;;
75550;SDS011;65071;53.082;18.218;2023-06-19T06:04:23;14.10;;;12.30;;
75550;SDS011;65071;53.082;18.218;2023-06-19T06:06:49;13.40;;;12.10;;
75550;SDS011;65071;53.082;18.218;2023-06-19T06:09:16;12.90;;;11.60;;
75550;SDS011;65071;53.082;18.218;2023-06-19T06:11:45;13.60;;;12.20;;
75550;SDS011;65071;53.082;18.218;2023-06-19T06:14:13;13.90;;;12.50;;
75550;SDS011;65071;53.082;18.218;2023-06-19T06:16:39;13.20;;;11.80;;
75550;SDS011;65071;53.082;18.218;2023-06-19T06:19:06;13.80;;;12.10;;
75550;SDS011;65071;53.082;18.218;2023-06-19T06:21:33;14.10;;;12.60;;
75550;SDS011;65071;53.082;18.218;2023-06-19T06:24:01;14.10;;;12.70;;
75550;SDS011;65071;53.082;18.218;2023-06-19T06:26:29;12.40;;;11.10;;
75550;SDS011;65071;53.082;18.218;2023-06-19T06:28:56;13.50;;;11.30;;
75550;SDS011;65071;53.082;18.218;2023-06-19T06:31:23;12.50;;;10.40;;
75550;SDS011;65071;53.082;18.218;2023-06-19T06:33:49;12.20;;;11.00;;
75550;SDS011;65071;53.082;18.218;2023-06-19T06:36:16;12.20;;;10.50;;
75550;SDS011;65071;53.082;18.218;2023-06-19T06:38:42;11.20;;;10.10;;
75550;SDS011;65071;53.082;18.218;2023-06-19T06:41:09;12.50;;;10.90;;
75550;SDS011;65071;53.082;18.218;2023-06-19T06:43:36;13.00;;;11.30;;
75550;SDS011;65071;53.082;18.218;2023-06-19T06:46:02;13.10;;;11.70;;
75550;SDS011;65071;53.082;18.218;2023-06-19T06:48:30;10.80;;;9.80;;
75550;SDS011;65071;53.082;18.218;2023-06-19T06:50:56;11.10;;;9.90;;
75550;SDS011;65071;53.082;18.218;2023-06-19T06:53:27;9.90;;;8.80;;
75550;SDS011;65071;53.082;18.218;2023-06-19T06:55:54;9.50;;;8.60;;
75550;SDS011;65071;53.082;18.218;2023-06-19T06:58:21;14.40;;;13.00;;
75550;SDS011;65071;53.082;18.218;2023-06-19T07:00:48;8.30;;;7.50;;
75550;SDS011;65071;53.082;18.218;2023-06-19T07:03:17;8.80;;;7.90;;
75550;SDS011;65071;53.082;18.218;2023-06-19T07:05:49;11.80;;;10.60;;
75550;SDS011;65071;53.082;18.218;2023-06-19T07:08:28;11.20;;;8.80;;
75550;SDS011;65071;53.082;18.218;2023-06-19T07:10:56;9.90;;;8.20;;
75550;SDS011;65071;53.082;18.218;2023-06-19T07:13:23;13.00;;;11.10;;
75550;SDS011;65071;53.082;18.218;2023-06-19T07:25:12;9.20;;;8.30;;
75550;SDS011;65071;53.082;18.218;2023-06-19T07:27:40;9.20;;;8.20;;
75550;SDS011;65071;53.082;18.218;2023-06-19T07:48:47;9.20;;;7.90;;
75550;SDS011;65071;53.082;18.218;2023-06-19T07:51:14;6.50;;;5.80;;
75550;SDS011;65071;53.082;18.218;2023-06-19T07:53:42;7.00;;;6.30;;
75550;SDS011;65071;53.082;18.218;2023-06-19T07:56:16;6.30;;;5.80;;
75550;SDS011;65071;53.082;18.218;2023-06-19T08:55:52;6.90;;;6.30;;
75550;SDS011;65071;53.082;18.218;2023-06-19T08:58:22;7.40;;;6.60;;
75550;SDS011;65071;53.082;18.218;2023-06-19T09:00:49;6.90;;;6.20;;
75550;SDS011;65071;53.082;18.218;2023-06-19T09:03:19;7.40;;;6.40;;
75550;SDS011;65071;53.082;18.218;2023-06-19T09:05:51;6.10;;;5.40;;
75550;SDS011;65071;53.082;18.218;2023-06-19T09:08:18;7.00;;;6.40;;
75550;SDS011;65071;53.082;18.218;2023-06-19T10:32:51;4.80;;;3.70;;
75550;SDS011;65071;53.082;18.218;2023-06-19T10:35:18;4.80;;;4.30;;
75550;SDS011;65071;53.082;18.218;2023-06-19T10:37:50;6.10;;;4.00;;
75550;SDS011;65071;53.082;18.218;2023-06-19T10:40:19;4.20;;;3.60;;
75550;SDS011;65071;53.082;18.218;2023-06-19T10:42:45;4.20;;;3.80;;
75550;SDS011;65071;53.082;18.218;2023-06-19T10:45:13;4.00;;;3.60;;
75550;SDS011;65071;53.082;18.218;2023-06-19T10:47:44;5.10;;;4.30;;
75550;SDS011;65071;53.082;18.218;2023-06-19T10:50:11;4.30;;;3.90;;
75550;SDS011;65071;53.082;18.218;2023-06-19T10:52:43;4.50;;;4.10;;
75550;SDS011;65071;53.082;18.218;2023-06-19T10:55:11;5.00;;;4.50;;
75550;SDS011;65071;53.082;18.218;2023-06-19T10:57:39;5.00;;;3.80;;
75550;SDS011;65071;53.082;18.218;2023-06-19T11:00:07;4.50;;;4.10;;
75550;SDS011;65071;53.082;18.218;2023-06-19T11:02:41;4.40;;;4.00;;
75550;SDS011;65071;53.082;18.218;2023-06-19T11:05:10;5.40;;;4.50;;
75550;SDS011;65071;53.082;18.218;2023-06-19T11:10:05;5.90;;;4.00;;
75550;SDS011;65071;53.082;18.218;2023-06-19T11:12:32;4.60;;;4.30;;
75550;SDS011;65071;53.082;18.218;2023-06-19T11:15:05;5.10;;;4.60;;
75550;SDS011;65071;53.082;18.218;2023-06-19T11:17:34;5.40;;;4.70;;
75550;SDS011;65071;53.082;18.218;2023-06-19T11:20:00;5.20;;;4.70;;
75550;SDS011;65071;53.082;18.218;2023-06-19T11:22:36;5.30;;;4.80;;
75550;SDS011;65071;53.082;18.218;2023-06-19T11:25:08;5.60;;;4.50;;
75550;SDS011;65071;53.082;18.218;2023-06-19T11:27:37;6.20;;;5.40;;
75550;SDS011;65071;53.082;18.218;2023-06-19T11:30:06;5.20;;;4.60;;
75550;SDS011;65071;53.082;18.218;2023-06-19T11:32:34;4.60;;;4.00;;
75550;SDS011;65071;53.082;18.218;2023-06-19T11:35:09;5.40;;;4.90;;
75550;SDS011;65071;53.082;18.218;2023-06-19T11:37:40;5.40;;;4.90;;
75550;SDS011;65071;53.082;18.218;2023-06-19T11:40:12;5.30;;;4.80;;
75550;SDS011;65071;53.082;18.218;2023-06-19T11:42:45;6.30;;;5.20;;
75550;SDS011;65071;53.082;18.218;2023-06-19T11:45:16;5.70;;;5.20;;
75550;SDS011;65071;53.082;18.218;2023-06-19T11:47:44;5.30;;;4.80;;
75550;SDS011;65071;53.082;18.218;2023-06-19T11:50:17;5.80;;;5.20;;
75550;SDS011;65071;53.082;18.218;2023-06-19T11:52:47;5.40;;;4.90;;
75550;SDS011;65071;53.082;18.218;2023-06-19T11:55:13;5.80;;;5.10;;
75550;SDS011;65071;53.082;18.218;2023-06-19T11:57:47;7.20;;;5.30;;
75550;SDS011;65071;53.082;18.218;2023-06-19T12:00:14;5.70;;;4.70;;
75550;SDS011;65071;53.082;18.218;2023-06-19T12:02:43;5.70;;;5.00;;
75550;SDS011;65071;53.082;18.218;2023-06-19T12:05:10;6.10;;;4.80;;
75550;SDS011;65071;53.082;18.218;2023-06-19T12:07:37;5.40;;;4.90;;
75550;SDS011;65071;53.082;18.218;2023-06-19T12:10:03;4.10;;;3.70;;
75550;SDS011;65071;53.082;18.218;2023-06-19T12:12:36;6.60;;;5.50;;
75550;SDS011;65071;53.082;18.218;2023-06-19T12:15:04;6.10;;;5.50;;
75550;SDS011;65071;53.082;18.218;2023-06-19T12:17:32;5.60;;;5.00;;
75550;SDS011;65071;53.082;18.218;2023-06-19T12:19:59;6.20;;;5.60;;
75550;SDS011;65071;53.082;18.218;2023-06-19T12:22:26;6.10;;;5.50;;
75550;SDS011;65071;53.082;18.218;2023-06-19T12:24:53;6.90;;;5.10;;
75550;SDS011;65071;53.082;18.218;2023-06-19T12:27:19;6.40;;;5.20;;
75550;SDS011;65071;53.082;18.218;2023-06-19T12:29:46;5.70;;;4.80;;
75550;SDS011;65071;53.082;18.218;2023-06-19T12:32:13;5.00;;;4.40;;
75550;SDS011;65071;53.082;18.218;2023-06-19T12:34:39;6.00;;;5.40;;
75550;SDS011;65071;53.082;18.218;2023-06-19T12:37:06;5.50;;;5.00;;
75550;SDS011;65071;53.082;18.218;2023-06-19T12:39:33;5.60;;;5.10;;
75550;SDS011;65071;53.082;18.218;2023-06-19T12:41:59;4.90;;;4.50;;
75550;SDS011;65071;53.082;18.218;2023-06-19T12:44:26;5.50;;;5.00;;
75550;SDS011;65071;53.082;18.218;2023-06-19T12:46:52;5.70;;;5.10;;
75550;SDS011;65071;53.082;18.218;2023-06-19T12:49:19;7.10;;;5.40;;
75550;SDS011;65071;53.082;18.218;2023-06-19T12:51:46;5.30;;;4.80;;
75550;SDS011;65071;53.082;18.218;2023-06-19T12:54:17;5.20;;;4.70;;
75550;SDS011;65071;53.082;18.218;2023-06-19T12:56:44;6.00;;;5.40;;
75550;SDS011;65071;53.082;18.218;2023-06-19T12:59:11;6.20;;;5.00;;
75550;SDS011;65071;53.082;18.218;2023-06-19T13:01:38;5.60;;;5.00;;
75550;SDS011;65071;53.082;18.218;2023-06-19T13:04:04;6.60;;;4.70;;
75550;SDS011;65071;53.082;18.218;2023-06-19T13:06:31;4.90;;;4.50;;
75550;SDS011;65071;53.082;18.218;2023-06-19T13:08:58;6.30;;;5.30;;
75550;SDS011;65071;53.082;18.218;2023-06-19T13:11:25;5.80;;;5.20;;
75550;SDS011;65071;53.082;18.218;2023-06-19T13:13:51;5.80;;;5.20;;
75550;SDS011;65071;53.082;18.218;2023-06-19T13:16:18;5.50;;;5.00;;
75550;SDS011;65071;53.082;18.218;2023-06-19T13:18:45;5.70;;;5.10;;
75550;SDS011;65071;53.082;18.218;2023-06-19T13:21:12;5.60;;;5.10;;
75550;SDS011;65071;53.082;18.218;2023-06-19T13:23:38;5.50;;;5.00;;
75550;SDS011;65071;53.082;18.218;2023-06-19T13:26:05;5.20;;;4.70;;
75550;SDS011;65071;53.082;18.218;2023-06-19T13:28:32;5.80;;;5.30;;
75550;SDS011;65071;53.082;18.218;2023-06-19T13:30:59;6.70;;;5.10;;
75550;SDS011;65071;53.082;18.218;2023-06-19T13:33:26;5.50;;;5.00;;
75550;SDS011;65071;53.082;18.218;2023-06-19T13:35:52;5.40;;;4.90;;
75550;SDS011;65071;53.082;18.218;2023-06-19T13:38:19;6.00;;;5.50;;
75550;SDS011;65071;53.082;18.218;2023-06-19T13:40:45;5.10;;;4.60;;
75550;SDS011;65071;53.082;18.218;2023-06-19T13:43:12;5.70;;;5.10;;
75550;SDS011;65071;53.082;18.218;2023-06-19T13:45:38;6.40;;;5.80;;
75550;SDS011;65071;53.082;18.218;2023-06-19T13:48:05;5.60;;;5.10;;
75550;SDS011;65071;53.082;18.218;2023-06-19T13:50:32;5.80;;;5.20;;
75550;SDS011;65071;53.082;18.218;2023-06-19T13:52:59;5.90;;;5.40;;
75550;SDS011;65071;53.082;18.218;2023-06-19T13:55:27;5.80;;;5.20;;
75550;SDS011;65071;53.082;18.218;2023-06-19T13:57:53;5.60;;;5.00;;
75550;SDS011;65071;53.082;18.218;2023-06-19T14:00:20;5.80;;;5.20;;
75550;SDS011;65071;53.082;18.218;2023-06-19T14:02:48;6.00;;;5.40;;
75550;SDS011;65071;53.082;18.218;2023-06-19T14:05:16;6.10;;;5.50;;
75550;SDS011;65071;53.082;18.218;2023-06-19T14:07:43;5.70;;;4.90;;
75550;SDS011;65071;53.082;18.218;2023-06-19T14:10:09;6.30;;;5.20;;
75550;SDS011;65071;53.082;18.218;2023-06-19T14:12:36;4.60;;;4.20;;
75550;SDS011;65071;53.082;18.218;2023-06-19T14:15:02;6.00;;;5.10;;
75550;SDS011;65071;53.082;18.218;2023-06-19T14:17:29;5.60;;;4.80;;
75550;SDS011;65071;53.082;18.218;2023-06-19T14:19:55;5.60;;;5.10;;
75550;SDS011;65071;53.082;18.218;2023-06-19T14:22:23;5.90;;;5.00;;
75550;SDS011;65071;53.082;18.218;2023-06-19T14:24:49;5.10;;;4.40;;
75550;SDS011;65071;53.082;18.218;2023-06-19T14:27:16;6.40;;;5.20;;
75550;SDS011;65071;53.082;18.218;2023-06-19T14:29:42;5.70;;;5.20;;
75550;SDS011;65071;53.082;18.218;2023-06-19T14:32:09;5.50;;;5.00;;
75550;SDS011;65071;53.082;18.218;2023-06-19T14:34:35;5.50;;;5.00;;
75550;SDS011;65071;53.082;18.218;2023-06-19T14:37:02;5.60;;;5.10;;
75550;SDS011;65071;53.082;18.218;2023-06-19T14:39:28;6.60;;;5.30;;
75550;SDS011;65071;53.082;18.218;2023-06-19T14:41:55;5.70;;;4.70;;
75550;SDS011;65071;53.082;18.218;2023-06-19T14:44:21;6.70;;;5.20;;
75550;SDS011;65071;53.082;18.218;2023-06-19T14:46:48;5.50;;;5.00;;
75550;SDS011;65071;53.082;18.218;2023-06-19T14:49:15;5.10;;;4.60;;
75550;SDS011;65071;53.082;18.218;2023-06-19T14:51:42;5.00;;;4.60;;
75550;SDS011;65071;53.082;18.218;2023-06-19T14:54:09;4.50;;;4.10;;
75550;SDS011;65071;53.082;18.218;2023-06-19T14:56:35;5.50;;;5.00;;
75550;SDS011;65071;53.082;18.218;2023-06-19T14:59:02;5.60;;;5.10;;
75550;SDS011;65071;53.082;18.218;2023-06-19T15:01:28;5.00;;;4.50;;
75550;SDS011;65071;53.082;18.218;2023-06-19T15:03:55;5.60;;;5.10;;
75550;SDS011;65071;53.082;18.218;2023-06-19T15:06:22;7.00;;;4.90;;
75550;SDS011;65071;53.082;18.218;2023-06-19T15:08:49;5.30;;;4.80;;
75550;SDS011;65071;53.082;18.218;2023-06-19T15:11:15;5.50;;;5.00;;
75550;SDS011;65071;53.082;18.218;2023-06-19T15:13:42;5.30;;;4.70;;
75550;SDS011;65071;53.082;18.218;2023-06-19T15:16:09;4.80;;;4.30;;
75550;SDS011;65071;53.082;18.218;2023-06-19T15:18:38;5.20;;;4.70;;
75550;SDS011;65071;53.082;18.218;2023-06-19T15:21:05;5.90;;;5.20;;
75550;SDS011;65071;53.082;18.218;2023-06-19T15:23:33;5.00;;;4.60;;
75550;SDS011;65071;53.082;18.218;2023-06-19T15:26:00;6.10;;;4.80;;
75550;SDS011;65071;53.082;18.218;2023-06-19T15:28:26;5.30;;;4.50;;
75550;SDS011;65071;53.082;18.218;2023-06-19T15:30:53;5.10;;;4.60;;
75550;SDS011;65071;53.082;18.218;2023-06-19T15:33:20;5.60;;;4.60;;
75550;SDS011;65071;53.082;18.218;2023-06-19T15:35:47;5.80;;;4.50;;
75550;SDS011;65071;53.082;18.218;2023-06-19T15:38:13;5.50;;;5.00;;
75550;SDS011;65071;53.082;18.218;2023-06-19T15:40:40;5.60;;;4.90;;
75550;SDS011;65071;53.082;18.218;2023-06-19T15:43:07;5.60;;;5.00;;
75550;SDS011;65071;53.082;18.218;2023-06-19T15:45:33;5.70;;;4.90;;
75550;SDS011;65071;53.082;18.218;2023-06-19T15:48:00;5.70;;;4.50;;
75550;SDS011;65071;53.082;18.218;2023-06-19T15:50:27;5.50;;;4.60;;
75550;SDS011;65071;53.082;18.218;2023-06-19T15:52:54;7.70;;;4.90;;
75550;SDS011;65071;53.082;18.218;2023-06-19T15:55:21;6.10;;;5.00;;
75550;SDS011;65071;53.082;18.218;2023-06-19T15:57:47;5.60;;;4.70;;
75550;SDS011;65071;53.082;18.218;2023-06-19T16:00:14;6.00;;;5.30;;
75550;SDS011;65071;53.082;18.218;2023-06-19T16:02:41;5.90;;;5.10;;
75550;SDS011;65071;53.082;18.218;2023-06-19T16:05:14;5.20;;;4.70;;
75550;SDS011;65071;53.082;18.218;2023-06-19T16:07:41;5.50;;;4.90;;
75550;SDS011;65071;53.082;18.218;2023-06-19T16:10:09;4.70;;;4.10;;
75550;SDS011;65071;53.082;18.218;2023-06-19T16:12:36;5.40;;;4.90;;
75550;SDS011;65071;53.082;18.218;2023-06-19T16:15:03;5.50;;;5.00;;
75550;SDS011;65071;53.082;18.218;2023-06-19T16:17:37;5.40;;;4.80;;
75550;SDS011;65071;53.082;18.218;2023-06-19T16:20:03;5.20;;;4.70;;
75550;SDS011;65071;53.082;18.218;2023-06-19T16:22:31;5.60;;;4.60;;
75550;SDS011;65071;53.082;18.218;2023-06-19T16:25:00;5.00;;;4.50;;
75550;SDS011;65071;53.082;18.218;2023-06-19T16:27:27;5.40;;;4.70;;
75550;SDS011;65071;53.082;18.218;2023-06-19T16:29:53;6.10;;;4.90;;
75550;SDS011;65071;53.082;18.218;2023-06-19T16:32:20;5.80;;;4.80;;
75550;SDS011;65071;53.082;18.218;2023-06-19T16:34:46;4.90;;;4.40;;
75550;SDS011;65071;53.082;18.218;2023-06-19T16:37:13;4.80;;;4.40;;
75550;SDS011;65071;53.082;18.218;2023-06-19T16:39:39;4.90;;;4.40;;
75550;SDS011;65071;53.082;18.218;2023-06-19T16:42:06;5.00;;;4.60;;
75550;SDS011;65071;53.082;18.218;2023-06-19T16:44:32;5.30;;;4.80;;
75550;SDS011;65071;53.082;18.218;2023-06-19T16:46:59;5.40;;;4.90;;
75550;SDS011;65071;53.082;18.218;2023-06-19T16:49:25;5.30;;;4.70;;
75550;SDS011;65071;53.082;18.218;2023-06-19T16:51:52;4.80;;;4.40;;
75550;SDS011;65071;53.082;18.218;2023-06-19T16:54:18;6.20;;;5.20;;
75550;SDS011;65071;53.082;18.218;2023-06-19T16:56:45;5.50;;;4.70;;
75550;SDS011;65071;53.082;18.218;2023-06-19T16:59:11;5.60;;;5.00;;
75550;SDS011;65071;53.082;18.218;2023-06-19T17:01:38;5.50;;;5.00;;
75550;SDS011;65071;53.082;18.218;2023-06-19T17:04:04;5.40;;;4.90;;
75550;SDS011;65071;53.082;18.218;2023-06-19T17:06:34;6.00;;;5.40;;
75550;SDS011;65071;53.082;18.218;2023-06-19T17:09:01;6.40;;;5.60;;
75550;SDS011;65071;53.082;18.218;2023-06-19T17:11:27;5.50;;;5.00;;
75550;SDS011;65071;53.082;18.218;2023-06-19T17:13:54;5.50;;;5.00;;
75550;SDS011;65071;53.082;18.218;2023-06-19T17:16:20;6.20;;;5.20;;
75550;SDS011;65071;53.082;18.218;2023-06-19T17:18:47;5.60;;;5.10;;
75550;SDS011;65071;53.082;18.218;2023-06-19T17:21:14;5.10;;;4.60;;